Searsport, ME (04974)

12:05 PM EDT on April 26, 2017 (GMT -0400)
| | Change Station
Active Advisory: Coastal Flood Advisory Active Notice: Coastal Flood Advisory

Elev -9999 ft 0.00 °N, 0.00 °E | Updated 3 minutes ago

Rain
Rain
°F
Feels Like °F
N
Wind Variable Wind from North
Gusts mph

Today
High -- | Low -- °F
--% Chance of Precip.
Yesterday
High -- | Low -- °F
Precip. -- in
Pressure 30.06 in
Visibility 4.0 miles
Clouds Overcast 500 ft
Dew Point Not available.
Humidity Not available.
Rainfall --
Snow Depth Not available.
5:33 AM 7:34 PM
New Moon, 0% visible
METAR KBGR 261553Z 12005KT 4SM BR OVC005 12/11 A3006 RMK AO2 RAE01B09E39DZB01E09B39E53 SLP177 P0003 T01170111
Pressure 30.06 in
Visibility 4.0 miles
Clouds Overcast 500 ft
Dew Point Not available.
Humidity Not available.
Rainfall --
Snow Depth Not available.
5:33 AM 7:34 PM
New Moon, 0% visible
METAR KBGR 261553Z 12005KT 4SM BR OVC005 12/11 A3006 RMK AO2 RAE01B09E39DZB01E09B39E53 SLP177 P0003 T01170111

Get Your Daily Forecast Email!

Thanks for signing up!

Be on the lookout for a verification email in your inbox.

You'll start receiving severe weather alerts in your inbox..

×

10-Day Weather Forecast

Almanac

Astronomy

Apr. 26, 2017 Rise Set
Actual Time
Civil Twilight
Nautical Twilight
Astronomical Twilight
Moon
Length of Visible Light
Length of Day
Tomorrow will be .
, % of the Moon is Illuminated

Today's Extremes

State Highs State Lows

Community

WunderPhotos

WunderBlog® & News

Nearby

Air Quality

  Air Quality AQ Index Pollutant
Not available.

Snow Depth

Station Depth Elevation

Earthquake Activity

City Distance Mag. Time & Date
Minimum magnitude displayed is 2.5.

Coastal Water Temperatures

Place Temperature

Stations

Nearby Weather Stations

Station Location Temp. Windchill Dew Point Humidity Wind Precip. Elev Updated Type
                   

Watches & Warnings

Coastal Flood Advisory
Issued: 3:24 AM EDT Apr. 26, 2017 – National Weather Service

... Coastal flood advisory in effect from 10 PM this evening to
2 am EDT Thursday...

The National Weather Service in gray has issued a coastal flood
advisory... which is in effect from 10 PM this evening to 2 am EDT
Thursday.

* Location... the New Hampshire seacoast and the beaches of
southwest Maine to the south of Portland.

* Coastal flooding... the combination of high astronomical tides
and an onshore wind will create a threat for splash over and
beach erosion near the time of high tide tonight.

* Timing... near the time of high tide tonight.

* Impacts... the potential exists for splash over and minor beach
erosion.

Precautionary/preparedness actions...

A coastal flood advisory indicates that onshore winds and tides
will combine to generate flooding of low areas along the shore.